sensor_id;sensor_type;location;lat;lon;timestamp;temperature;humidity
33149;DHT22;19506;51.040;3.856;2023-03-29T00:00:24;16.50;99.90
33149;DHT22;19506;51.040;3.856;2023-03-29T00:02:50;16.70;99.90
33149;DHT22;19506;51.040;3.856;2023-03-29T00:05:18;16.80;99.90
33149;DHT22;19506;51.040;3.856;2023-03-29T00:07:47;16.90;99.90
33149;DHT22;19506;51.040;3.856;2023-03-29T00:10:20;17.00;99.90
33149;DHT22;19506;51.040;3.856;2023-03-29T00:12:48;17.10;99.90
33149;DHT22;19506;51.040;3.856;2023-03-29T00:15:16;17.20;99.90
33149;DHT22;19506;51.040;3.856;2023-03-29T00:17:42;17.20;99.90
33149;DHT22;19506;51.040;3.856;2023-03-29T00:20:08;17.20;99.90
33149;DHT22;19506;51.040;3.856;2023-03-29T00:22:36;17.20;99.90
33149;DHT22;19506;51.040;3.856;2023-03-29T00:25:02;17.30;99.90
33149;DHT22;19506;51.040;3.856;2023-03-29T00:27:28;17.30;99.90
33149;DHT22;19506;51.040;3.856;2023-03-29T00:29:54;17.30;99.90
33149;DHT22;19506;51.040;3.856;2023-03-29T00:32:20;17.30;99.90
33149;DHT22;19506;51.040;3.856;2023-03-29T00:34:46;17.30;99.90
33149;DHT22;19506;51.040;3.856;2023-03-29T00:37:15;17.30;99.90
33149;DHT22;19506;51.040;3.856;2023-03-29T00:39:41;17.30;99.90
33149;DHT22;19506;51.040;3.856;2023-03-29T00:42:15;17.30;99.90
33149;DHT22;19506;51.040;3.856;2023-03-29T00:47:52;17.30;99.90
33149;DHT22;19506;51.040;3.856;2023-03-29T00:50:35;17.30;99.90
33149;DHT22;19506;51.040;3.856;2023-03-29T00:53:09;17.20;99.90
33149;DHT22;19506;51.040;3.856;2023-03-29T00:55:51;17.20;99.90
33149;DHT22;19506;51.040;3.856;2023-03-29T00:58:23;17.20;99.90
33149;DHT22;19506;51.040;3.856;2023-03-29T01:01:02;17.10;99.90
33149;DHT22;19506;51.040;3.856;2023-03-29T01:03:35;17.10;99.90
33149;DHT22;19506;51.040;3.856;2023-03-29T01:06:04;17.10;99.90
33149;DHT22;19506;51.040;3.856;2023-03-29T01:08:57;17.10;99.90
33149;DHT22;19506;51.040;3.856;2023-03-29T01:11:26;17.00;99.90
33149;DHT22;19506;51.040;3.856;2023-03-29T01:16:30;17.00;99.90
33149;DHT22;19506;51.040;3.856;2023-03-29T01:18:56;17.00;99.90
33149;DHT22;19506;51.040;3.856;2023-03-29T01:21:56;17.00;99.90
33149;DHT22;19506;51.040;3.856;2023-03-29T01:29:46;16.90;99.90
33149;DHT22;19506;51.040;3.856;2023-03-29T01:32:25;16.90;99.90
33149;DHT22;19506;51.040;3.856;2023-03-29T01:35:01;16.90;99.90
33149;DHT22;19506;51.040;3.856;2023-03-29T01:37:35;16.90;99.90
33149;DHT22;19506;51.040;3.856;2023-03-29T01:40:03;16.90;99.90
33149;DHT22;19506;51.040;3.856;2023-03-29T01:42:52;16.80;99.90
33149;DHT22;19506;51.040;3.856;2023-03-29T01:45:35;16.80;99.90
33149;DHT22;19506;51.040;3.856;2023-03-29T01:48:08;16.80;99.90
33149;DHT22;19506;51.040;3.856;2023-03-29T01:53:15;16.80;99.90
33149;DHT22;19506;51.040;3.856;2023-03-29T01:55:48;16.70;99.90
33149;DHT22;19506;51.040;3.856;2023-03-29T01:58:17;16.70;99.90
33149;DHT22;19506;51.040;3.856;2023-03-29T02:00:44;16.70;99.90
33149;DHT22;19506;51.040;3.856;2023-03-29T02:03:11;16.70;99.90
33149;DHT22;19506;51.040;3.856;2023-03-29T02:05:39;16.70;99.90
33149;DHT22;19506;51.040;3.856;2023-03-29T02:08:08;16.90;99.90
33149;DHT22;19506;51.040;3.856;2023-03-29T02:10:35;17.00;99.90
33149;DHT22;19506;51.040;3.856;2023-03-29T02:13:02;17.10;99.90
33149;DHT22;19506;51.040;3.856;2023-03-29T02:15:28;17.30;99.90
33149;DHT22;19506;51.040;3.856;2023-03-29T02:17:54;17.40;99.90
33149;DHT22;19506;51.040;3.856;2023-03-29T02:23:30;17.60;99.90
33149;DHT22;19506;51.040;3.856;2023-03-29T02:25:49;17.70;99.90
33149;DHT22;19506;51.040;3.856;2023-03-29T02:28:18;17.70;99.90
33149;DHT22;19506;51.040;3.856;2023-03-29T02:33:31;17.80;99.90
33149;DHT22;19506;51.040;3.856;2023-03-29T02:36:03;17.70;99.90
33149;DHT22;19506;51.040;3.856;2023-03-29T02:38:33;17.80;99.90
33149;DHT22;19506;51.040;3.856;2023-03-29T02:40:59;17.70;99.90
33149;DHT22;19506;51.040;3.856;2023-03-29T02:43:26;17.70;99.90
33149;DHT22;19506;51.040;3.856;2023-03-29T02:45:53;17.70;99.90
33149;DHT22;19506;51.040;3.856;2023-03-29T02:48:23;17.70;99.90
33149;DHT22;19506;51.040;3.856;2023-03-29T02:50:53;17.70;99.90
33149;DHT22;19506;51.040;3.856;2023-03-29T02:53:29;17.70;99.90
33149;DHT22;19506;51.040;3.856;2023-03-29T02:55:56;17.70;99.90
33149;DHT22;19506;51.040;3.856;2023-03-29T02:58:22;17.70;99.90
33149;DHT22;19506;51.040;3.856;2023-03-29T03:00:51;17.70;99.90
33149;DHT22;19506;51.040;3.856;2023-03-29T03:03:17;17.70;99.90
33149;DHT22;19506;51.040;3.856;2023-03-29T03:05:43;17.70;99.90
33149;DHT22;19506;51.040;3.856;2023-03-29T03:08:08;17.70;99.90
33149;DHT22;19506;51.040;3.856;2023-03-29T03:10:35;17.60;99.90
33149;DHT22;19506;51.040;3.856;2023-03-29T03:13:01;17.60;99.90
33149;DHT22;19506;51.040;3.856;2023-03-29T03:15:26;17.60;99.90
33149;DHT22;19506;51.040;3.856;2023-03-29T03:17:53;17.60;99.90
33149;DHT22;19506;51.040;3.856;2023-03-29T03:20:19;17.50;99.90
33149;DHT22;19506;51.040;3.856;2023-03-29T03:22:47;17.50;99.90
33149;DHT22;19506;51.040;3.856;2023-03-29T03:25:14;17.50;99.90
33149;DHT22;19506;51.040;3.856;2023-03-29T03:27:42;17.40;99.90
33149;DHT22;19506;51.040;3.856;2023-03-29T03:30:08;17.40;99.90
33149;DHT22;19506;51.040;3.856;2023-03-29T03:32:34;17.40;99.90
33149;DHT22;19506;51.040;3.856;2023-03-29T03:35:01;17.30;99.90
33149;DHT22;19506;51.040;3.856;2023-03-29T03:37:27;17.30;99.90
33149;DHT22;19506;51.040;3.856;2023-03-29T03:39:53;17.30;99.90
33149;DHT22;19506;51.040;3.856;2023-03-29T03:42:19;17.30;99.90
33149;DHT22;19506;51.040;3.856;2023-03-29T03:44:46;17.20;99.90
33149;DHT22;19506;51.040;3.856;2023-03-29T03:47:12;17.20;99.90
33149;DHT22;19506;51.040;3.856;2023-03-29T03:49:40;17.20;99.90
33149;DHT22;19506;51.040;3.856;2023-03-29T03:52:07;17.20;99.90
33149;DHT22;19506;51.040;3.856;2023-03-29T03:54:33;17.20;99.90
33149;DHT22;19506;51.040;3.856;2023-03-29T03:56:58;17.20;99.90
33149;DHT22;19506;51.040;3.856;2023-03-29T03:59:24;17.20;99.90
33149;DHT22;19506;51.040;3.856;2023-03-29T04:01:50;17.20;99.90
33149;DHT22;19506;51.040;3.856;2023-03-29T04:04:16;17.20;99.90
33149;DHT22;19506;51.040;3.856;2023-03-29T04:06:42;17.30;99.90
33149;DHT22;19506;51.040;3.856;2023-03-29T04:09:08;17.50;99.90
33149;DHT22;19506;51.040;3.856;2023-03-29T04:11:34;17.70;99.90
33149;DHT22;19506;51.040;3.856;2023-03-29T04:14:00;17.80;99.90
33149;DHT22;19506;51.040;3.856;2023-03-29T04:16:26;17.90;99.90
33149;DHT22;19506;51.040;3.856;2023-03-29T04:18:51;18.00;99.90
33149;DHT22;19506;51.040;3.856;2023-03-29T04:21:17;18.00;99.90
33149;DHT22;19506;51.040;3.856;2023-03-29T04:23:43;18.00;99.90
33149;DHT22;19506;51.040;3.856;2023-03-29T04:26:11;18.10;99.90
33149;DHT22;19506;51.040;3.856;2023-03-29T04:28:38;18.10;99.90
33149;DHT22;19506;51.040;3.856;2023-03-29T04:31:06;18.10;99.90
33149;DHT22;19506;51.040;3.856;2023-03-29T04:33:33;18.10;99.90
33149;DHT22;19506;51.040;3.856;2023-03-29T04:35:58;18.10;99.90
33149;DHT22;19506;51.040;3.856;2023-03-29T04:38:24;18.10;99.90
33149;DHT22;19506;51.040;3.856;2023-03-29T04:40:51;18.10;99.90
33149;DHT22;19506;51.040;3.856;2023-03-29T04:43:19;18.00;99.90
33149;DHT22;19506;51.040;3.856;2023-03-29T04:45:44;18.00;99.90
33149;DHT22;19506;51.040;3.856;2023-03-29T04:48:10;18.00;99.90
33149;DHT22;19506;51.040;3.856;2023-03-29T04:50:36;18.00;99.90
33149;DHT22;19506;51.040;3.856;2023-03-29T04:53:01;18.00;99.90
33149;DHT22;19506;51.040;3.856;2023-03-29T04:55:27;17.90;99.90
33149;DHT22;19506;51.040;3.856;2023-03-29T04:57:53;17.90;99.90
33149;DHT22;19506;51.040;3.856;2023-03-29T05:00:20;17.90;99.90
33149;DHT22;19506;51.040;3.856;2023-03-29T05:02:52;17.90;99.90
33149;DHT22;19506;51.040;3.856;2023-03-29T05:05:18;17.90;99.90
33149;DHT22;19506;51.040;3.856;2023-03-29T05:07:44;17.80;99.90
33149;DHT22;19506;51.040;3.856;2023-03-29T05:10:11;17.80;99.90
33149;DHT22;19506;51.040;3.856;2023-03-29T05:12:37;17.80;99.90
33149;DHT22;19506;51.040;3.856;2023-03-29T05:15:04;17.80;99.90
33149;DHT22;19506;51.040;3.856;2023-03-29T05:17:29;17.70;99.90
33149;DHT22;19506;51.040;3.856;2023-03-29T05:19:56;17.70;99.90
33149;DHT22;19506;51.040;3.856;2023-03-29T05:22:22;17.70;99.90
33149;DHT22;19506;51.040;3.856;2023-03-29T05:24:48;17.70;99.90
33149;DHT22;19506;51.040;3.856;2023-03-29T05:27:15;17.60;99.90
33149;DHT22;19506;51.040;3.856;2023-03-29T05:29:41;17.60;99.90
33149;DHT22;19506;51.040;3.856;2023-03-29T05:32:09;17.60;99.90
33149;DHT22;19506;51.040;3.856;2023-03-29T05:34:35;17.60;99.90
33149;DHT22;19506;51.040;3.856;2023-03-29T05:37:01;17.50;99.90
33149;DHT22;19506;51.040;3.856;2023-03-29T05:39:27;17.50;99.90
33149;DHT22;19506;51.040;3.856;2023-03-29T05:41:53;17.50;99.90
33149;DHT22;19506;51.040;3.856;2023-03-29T05:44:19;17.50;99.90
33149;DHT22;19506;51.040;3.856;2023-03-29T05:46:45;17.40;99.90
33149;DHT22;19506;51.040;3.856;2023-03-29T05:49:10;17.40;99.90
33149;DHT22;19506;51.040;3.856;2023-03-29T05:51:36;17.30;99.90
33149;DHT22;19506;51.040;3.856;2023-03-29T05:54:02;17.30;99.90
33149;DHT22;19506;51.040;3.856;2023-03-29T05:56:28;17.30;99.90
33149;DHT22;19506;51.040;3.856;2023-03-29T05:58:54;17.30;99.90
33149;DHT22;19506;51.040;3.856;2023-03-29T06:01:23;17.30;99.90
33149;DHT22;19506;51.040;3.856;2023-03-29T06:03:50;17.30;99.90
33149;DHT22;19506;51.040;3.856;2023-03-29T06:06:16;17.30;99.90
33149;DHT22;19506;51.040;3.856;2023-03-29T06:08:43;17.30;99.90
33149;DHT22;19506;51.040;3.856;2023-03-29T06:11:10;17.20;99.90
33149;DHT22;19506;51.040;3.856;2023-03-29T06:13:36;17.20;99.90
33149;DHT22;19506;51.040;3.856;2023-03-29T06:16:07;17.20;99.90
33149;DHT22;19506;51.040;3.856;2023-03-29T06:18:33;17.20;99.90
33149;DHT22;19506;51.040;3.856;2023-03-29T06:20:59;17.20;99.90
33149;DHT22;19506;51.040;3.856;2023-03-29T06:23:27;17.20;99.90
33149;DHT22;19506;51.040;3.856;2023-03-29T06:25:53;17.20;99.90
33149;DHT22;19506;51.040;3.856;2023-03-29T06:28:20;17.20;99.90
33149;DHT22;19506;51.040;3.856;2023-03-29T06:30:46;17.20;99.90
33149;DHT22;19506;51.040;3.856;2023-03-29T06:33:13;17.10;99.90
33149;DHT22;19506;51.040;3.856;2023-03-29T06:35:44;17.10;99.90
33149;DHT22;19506;51.040;3.856;2023-03-29T06:38:10;17.10;99.90
33149;DHT22;19506;51.040;3.856;2023-03-29T06:40:36;17.00;99.90
33149;DHT22;19506;51.040;3.856;2023-03-29T06:43:03;17.00;99.90
33149;DHT22;19506;51.040;3.856;2023-03-29T06:45:34;17.00;99.90
33149;DHT22;19506;51.040;3.856;2023-03-29T06:48:01;17.00;99.90
33149;DHT22;19506;51.040;3.856;2023-03-29T06:50:28;17.00;99.90
33149;DHT22;19506;51.040;3.856;2023-03-29T06:52:54;17.00;99.90
33149;DHT22;19506;51.040;3.856;2023-03-29T06:55:19;16.90;99.90
33149;DHT22;19506;51.040;3.856;2023-03-29T06:57:47;16.90;99.90
33149;DHT22;19506;51.040;3.856;2023-03-29T07:00:14;16.90;99.90
33149;DHT22;19506;51.040;3.856;2023-03-29T07:02:46;17.00;99.90
33149;DHT22;19506;51.040;3.856;2023-03-29T07:05:14;17.10;99.90
33149;DHT22;19506;51.040;3.856;2023-03-29T07:07:42;17.10;99.90
33149;DHT22;19506;51.040;3.856;2023-03-29T07:10:30;17.10;99.90
33149;DHT22;19506;51.040;3.856;2023-03-29T07:12:58;17.10;99.90
33149;DHT22;19506;51.040;3.856;2023-03-29T07:15:27;17.10;99.90
33149;DHT22;19506;51.040;3.856;2023-03-29T07:17:54;17.20;99.90
33149;DHT22;19506;51.040;3.856;2023-03-29T07:20:20;17.20;99.90
33149;DHT22;19506;51.040;3.856;2023-03-29T07:22:47;17.20;99.90
33149;DHT22;19506;51.040;3.856;2023-03-29T07:25:16;17.20;99.90
33149;DHT22;19506;51.040;3.856;2023-03-29T07:27:44;17.20;99.90
33149;DHT22;19506;51.040;3.856;2023-03-29T07:30:12;17.30;99.90
33149;DHT22;19506;51.040;3.856;2023-03-29T07:32:40;17.20;99.90
33149;DHT22;19506;51.040;3.856;2023-03-29T07:35:07;17.10;99.90
33149;DHT22;19506;51.040;3.856;2023-03-29T07:37:34;17.00;99.90
33149;DHT22;19506;51.040;3.856;2023-03-29T07:40:03;17.00;99.90
33149;DHT22;19506;51.040;3.856;2023-03-29T07:42:33;16.90;99.90
33149;DHT22;19506;51.040;3.856;2023-03-29T07:45:04;16.90;99.90
33149;DHT22;19506;51.040;3.856;2023-03-29T07:47:30;16.90;99.90
33149;DHT22;19506;51.040;3.856;2023-03-29T07:49:56;16.90;99.90
33149;DHT22;19506;51.040;3.856;2023-03-29T07:52:23;16.80;99.90
33149;DHT22;19506;51.040;3.856;2023-03-29T07:54:49;16.90;99.90
33149;DHT22;19506;51.040;3.856;2023-03-29T07:57:15;16.80;99.90
33149;DHT22;19506;51.040;3.856;2023-03-29T07:59:41;16.80;99.90
33149;DHT22;19506;51.040;3.856;2023-03-29T08:02:09;16.80;99.90
33149;DHT22;19506;51.040;3.856;2023-03-29T08:04:35;16.90;99.90
33149;DHT22;19506;51.040;3.856;2023-03-29T08:07:01;17.00;99.90
33149;DHT22;19506;51.040;3.856;2023-03-29T08:09:26;17.10;99.90
33149;DHT22;19506;51.040;3.856;2023-03-29T08:11:52;17.10;99.90
33149;DHT22;19506;51.040;3.856;2023-03-29T08:14:18;17.10;99.90
33149;DHT22;19506;51.040;3.856;2023-03-29T08:16:46;17.10;99.90
33149;DHT22;19506;51.040;3.856;2023-03-29T08:19:11;17.20;99.90
33149;DHT22;19506;51.040;3.856;2023-03-29T08:21:38;17.10;99.90
33149;DHT22;19506;51.040;3.856;2023-03-29T08:24:04;17.10;99.90
33149;DHT22;19506;51.040;3.856;2023-03-29T08:26:30;17.10;99.90
33149;DHT22;19506;51.040;3.856;2023-03-29T08:28:55;17.10;99.90
33149;DHT22;19506;51.040;3.856;2023-03-29T08:31:21;17.20;99.90
33149;DHT22;19506;51.040;3.856;2023-03-29T08:33:47;17.20;99.90
33149;DHT22;19506;51.040;3.856;2023-03-29T08:36:12;17.10;99.90
33149;DHT22;19506;51.040;3.856;2023-03-29T08:38:38;17.00;99.90
33149;DHT22;19506;51.040;3.856;2023-03-29T08:41:38;17.00;99.90
33149;DHT22;19506;51.040;3.856;2023-03-29T08:49:49;16.90;99.90
33149;DHT22;19506;51.040;3.856;2023-03-29T08:54:57;16.90;99.90
33149;DHT22;19506;51.040;3.856;2023-03-29T08:57:28;16.80;99.90
33149;DHT22;19506;51.040;3.856;2023-03-29T08:59:56;16.90;99.90
33149;DHT22;19506;51.040;3.856;2023-03-29T09:02:29;16.80;99.90
33149;DHT22;19506;51.040;3.856;2023-03-29T09:04:59;16.90;99.90
33149;DHT22;19506;51.040;3.856;2023-03-29T09:07:27;16.90;99.90
33149;DHT22;19506;51.040;3.856;2023-03-29T09:09:52;17.00;99.90
33149;DHT22;19506;51.040;3.856;2023-03-29T09:12:43;17.00;99.90
33149;DHT22;19506;51.040;3.856;2023-03-29T09:15:21;17.00;99.90
33149;DHT22;19506;51.040;3.856;2023-03-29T09:20:37;17.00;99.90
33149;DHT22;19506;51.040;3.856;2023-03-29T09:23:09;17.00;99.90
33149;DHT22;19506;51.040;3.856;2023-03-29T09:26:58;17.00;99.90
33149;DHT22;19506;51.040;3.856;2023-03-29T09:31:43;17.10;99.90
33149;DHT22;19506;51.040;3.856;2023-03-29T09:34:42;17.10;99.90
33149;DHT22;19506;51.040;3.856;2023-03-29T09:37:13;17.00;99.90
33149;DHT22;19506;51.040;3.856;2023-03-29T09:39:46;17.00;99.90
33149;DHT22;19506;51.040;3.856;2023-03-29T09:42:12;17.00;99.90
33149;DHT22;19506;51.040;3.856;2023-03-29T09:44:40;16.90;99.90
33149;DHT22;19506;51.040;3.856;2023-03-29T09:47:23;16.80;99.90
33149;DHT22;19506;51.040;3.856;2023-03-29T09:49:57;16.80;99.90
33149;DHT22;19506;51.040;3.856;2023-03-29T09:52:23;16.80;99.90
33149;DHT22;19506;51.040;3.856;2023-03-29T09:54:51;16.80;99.90
33149;DHT22;19506;51.040;3.856;2023-03-29T09:57:17;16.80;99.90
33149;DHT22;19506;51.040;3.856;2023-03-29T09:59:48;16.80;99.90
33149;DHT22;19506;51.040;3.856;2023-03-29T10:02:18;16.80;99.90
33149;DHT22;19506;51.040;3.856;2023-03-29T10:04:43;16.80;99.90
33149;DHT22;19506;51.040;3.856;2023-03-29T10:07:17;16.80;99.90
33149;DHT22;19506;51.040;3.856;2023-03-29T10:09:44;16.80;99.90
33149;DHT22;19506;51.040;3.856;2023-03-29T10:12:11;16.90;99.90
33149;DHT22;19506;51.040;3.856;2023-03-29T10:14:51;16.90;99.90
33149;DHT22;19506;51.040;3.856;2023-03-29T10:17:22;16.90;99.90
33149;DHT22;19506;51.040;3.856;2023-03-29T10:19:56;16.90;99.90
33149;DHT22;19506;51.040;3.856;2023-03-29T10:22:25;16.90;99.90
33149;DHT22;19506;51.040;3.856;2023-03-29T10:24:53;16.90;99.90
33149;DHT22;19506;51.040;3.856;2023-03-29T10:27:30;16.90;99.90
33149;DHT22;19506;51.040;3.856;2023-03-29T10:29:59;16.90;99.90
33149;DHT22;19506;51.040;3.856;2023-03-29T10:32:36;16.90;99.90
33149;DHT22;19506;51.040;3.856;2023-03-29T10:35:27;16.90;99.90
33149;DHT22;19506;51.040;3.856;2023-03-29T10:37:55;16.90;99.90
33149;DHT22;19506;51.040;3.856;2023-03-29T10:40:32;16.90;99.90
33149;DHT22;19506;51.040;3.856;2023-03-29T10:45:48;16.80;99.90
33149;DHT22;19506;51.040;3.856;2023-03-29T10:48:15;16.80;99.90
33149;DHT22;19506;51.040;3.856;2023-03-29T10:50:42;16.90;99.90
33149;DHT22;19506;51.040;3.856;2023-03-29T10:53:26;16.80;99.90
33149;DHT22;19506;51.040;3.856;2023-03-29T11:23:42;16.90;99.90
33149;DHT22;19506;51.040;3.856;2023-03-29T11:29:02;16.90;99.90
33149;DHT22;19506;51.040;3.856;2023-03-29T11:31:47;16.90;99.90
33149;DHT22;19506;51.040;3.856;2023-03-29T11:34:36;16.90;99.90
33149;DHT22;19506;51.040;3.856;2023-03-29T11:42:33;16.90;99.90
33149;DHT22;19506;51.040;3.856;2023-03-29T11:45:01;16.90;99.90
33149;DHT22;19506;51.040;3.856;2023-03-29T11:47:34;16.90;99.90
33149;DHT22;19506;51.040;3.856;2023-03-29T11:50:24;16.90;99.90
33149;DHT22;19506;51.040;3.856;2023-03-29T11:52:58;16.90;99.90
33149;DHT22;19506;51.040;3.856;2023-03-29T11:55:29;17.00;99.90
33149;DHT22;19506;51.040;3.856;2023-03-29T12:00:56;16.90;99.90
33149;DHT22;19506;51.040;3.856;2023-03-29T12:03:52;16.90;99.90
33149;DHT22;19506;51.040;3.856;2023-03-29T12:07:19;16.90;99.90
33149;DHT22;19506;51.040;3.856;2023-03-29T12:09:33;16.90;99.90
33149;DHT22;19506;51.040;3.856;2023-03-29T12:14:36;17.00;99.90
33149;DHT22;19506;51.040;3.856;2023-03-29T12:17:11;17.00;99.90
33149;DHT22;19506;51.040;3.856;2023-03-29T12:22:13;17.10;99.90
33149;DHT22;19506;51.040;3.856;2023-03-29T12:24:40;17.00;99.90
33149;DHT22;19506;51.040;3.856;2023-03-29T12:27:29;17.00;99.90
33149;DHT22;19506;51.040;3.856;2023-03-29T12:38:34;17.00;99.90
33149;DHT22;19506;51.040;3.856;2023-03-29T12:41:18;17.00;99.90
33149;DHT22;19506;51.040;3.856;2023-03-29T12:43:46;17.00;99.90
33149;DHT22;19506;51.040;3.856;2023-03-29T12:48:45;17.20;99.90
33149;DHT22;19506;51.040;3.856;2023-03-29T12:51:26;17.20;99.90
33149;DHT22;19506;51.040;3.856;2023-03-29T12:54:07;17.20;99.90
33149;DHT22;19506;51.040;3.856;2023-03-29T12:56:52;17.20;99.90
33149;DHT22;19506;51.040;3.856;2023-03-29T12:59:26;17.10;99.90
33149;DHT22;19506;51.040;3.856;2023-03-29T13:02:01;17.10;99.90
33149;DHT22;19506;51.040;3.856;2023-03-29T13:04:47;17.00;99.90
33149;DHT22;19506;51.040;3.856;2023-03-29T13:07:26;17.00;99.90
33149;DHT22;19506;51.040;3.856;2023-03-29T13:10:00;16.90;99.90
33149;DHT22;19506;51.040;3.856;2023-03-29T13:23:31;17.10;99.90
33149;DHT22;19506;51.040;3.856;2023-03-29T13:34:42;17.10;99.90
33149;DHT22;19506;51.040;3.856;2023-03-29T13:40:22;17.00;99.90
33149;DHT22;19506;51.040;3.856;2023-03-29T13:42:57;17.10;99.90
33149;DHT22;19506;51.040;3.856;2023-03-29T13:45:29;17.10;99.90
33149;DHT22;19506;51.040;3.856;2023-03-29T13:48:28;17.10;99.90
33149;DHT22;19506;51.040;3.856;2023-03-29T13:50:58;17.10;99.90
33149;DHT22;19506;51.040;3.856;2023-03-29T13:54:02;17.10;99.90
33149;DHT22;19506;51.040;3.856;2023-03-29T13:56:36;17.00;99.90
33149;DHT22;19506;51.040;3.856;2023-03-29T13:59:17;17.10;99.90
33149;DHT22;19506;51.040;3.856;2023-03-29T14:01:50;17.00;99.90
33149;DHT22;19506;51.040;3.856;2023-03-29T14:04:42;17.10;99.90
33149;DHT22;19506;51.040;3.856;2023-03-29T14:07:12;17.00;99.90
33149;DHT22;19506;51.040;3.856;2023-03-29T14:09:42;17.00;99.90
33149;DHT22;19506;51.040;3.856;2023-03-29T14:12:11;17.10;99.90
33149;DHT22;19506;51.040;3.856;2023-03-29T14:14:41;17.10;99.90
33149;DHT22;19506;51.040;3.856;2023-03-29T14:17:09;17.10;99.90
33149;DHT22;19506;51.040;3.856;2023-03-29T14:19:36;17.10;99.90
33149;DHT22;19506;51.040;3.856;2023-03-29T14:22:08;17.20;99.90
33149;DHT22;19506;51.040;3.856;2023-03-29T14:24:38;17.30;99.90
33149;DHT22;19506;51.040;3.856;2023-03-29T14:27:06;17.30;99.90
33149;DHT22;19506;51.040;3.856;2023-03-29T14:29:35;17.40;99.90
33149;DHT22;19506;51.040;3.856;2023-03-29T14:32:10;17.50;99.90
33149;DHT22;19506;51.040;3.856;2023-03-29T14:34:37;17.50;99.90
33149;DHT22;19506;51.040;3.856;2023-03-29T14:37:03;17.60;99.90
33149;DHT22;19506;51.040;3.856;2023-03-29T14:39:32;17.80;99.90
33149;DHT22;19506;51.040;3.856;2023-03-29T14:41:58;17.70;99.90
33149;DHT22;19506;51.040;3.856;2023-03-29T14:44:32;17.70;99.90
33149;DHT22;19506;51.040;3.856;2023-03-29T14:47:00;17.80;99.90
33149;DHT22;19506;51.040;3.856;2023-03-29T14:49:27;17.80;99.90
33149;DHT22;19506;51.040;3.856;2023-03-29T14:51:54;17.90;99.90
33149;DHT22;19506;51.040;3.856;2023-03-29T14:54:26;17.90;99.90
33149;DHT22;19506;51.040;3.856;2023-03-29T14:56:52;17.80;99.90
33149;DHT22;19506;51.040;3.856;2023-03-29T14:59:40;17.90;99.90
33149;DHT22;19506;51.040;3.856;2023-03-29T15:02:27;17.90;99.90
33149;DHT22;19506;51.040;3.856;2023-03-29T15:05:04;17.90;99.90
33149;DHT22;19506;51.040;3.856;2023-03-29T15:07:31;18.00;99.90
33149;DHT22;19506;51.040;3.856;2023-03-29T15:09:58;18.00;99.90
33149;DHT22;19506;51.040;3.856;2023-03-29T15:12:29;18.10;99.90
33149;DHT22;19506;51.040;3.856;2023-03-29T15:14:56;20.10;99.90
33149;DHT22;19506;51.040;3.856;2023-03-29T15:17:37;18.00;99.90
33149;DHT22;19506;51.040;3.856;2023-03-29T15:22:52;18.00;99.90
33149;DHT22;19506;51.040;3.856;2023-03-29T15:25:20;18.30;99.90
33149;DHT22;19506;51.040;3.856;2023-03-29T15:27:53;18.50;99.90
33149;DHT22;19506;51.040;3.856;2023-03-29T15:30:19;18.30;99.90
33149;DHT22;19506;51.040;3.856;2023-03-29T15:32:46;18.20;99.90
33149;DHT22;19506;51.040;3.856;2023-03-29T15:35:23;18.30;99.90
33149;DHT22;19506;51.040;3.856;2023-03-29T15:37:50;18.20;99.90
33149;DHT22;19506;51.040;3.856;2023-03-29T15:40:20;18.40;99.90
33149;DHT22;19506;51.040;3.856;2023-03-29T15:42:48;18.40;99.90
33149;DHT22;19506;51.040;3.856;2023-03-29T15:45:18;18.20;99.90
33149;DHT22;19506;51.040;3.856;2023-03-29T15:47:45;18.00;99.90
33149;DHT22;19506;51.040;3.856;2023-03-29T15:50:14;18.10;99.90
33149;DHT22;19506;51.040;3.856;2023-03-29T15:52:41;18.10;99.90
33149;DHT22;19506;51.040;3.856;2023-03-29T15:55:13;18.20;99.90
33149;DHT22;19506;51.040;3.856;2023-03-29T15:57:41;18.10;99.90
33149;DHT22;19506;51.040;3.856;2023-03-29T16:00:13;18.00;99.90
33149;DHT22;19506;51.040;3.856;2023-03-29T16:02:40;17.90;99.90
33149;DHT22;19506;51.040;3.856;2023-03-29T16:05:08;17.90;99.90
33149;DHT22;19506;51.040;3.856;2023-03-29T16:07:35;17.80;99.90
33149;DHT22;19506;51.040;3.856;2023-03-29T16:10:02;17.90;99.90
33149;DHT22;19506;51.040;3.856;2023-03-29T16:12:28;17.90;99.90
33149;DHT22;19506;51.040;3.856;2023-03-29T16:14:53;18.10;99.90
33149;DHT22;19506;51.040;3.856;2023-03-29T16:17:20;18.10;99.90
33149;DHT22;19506;51.040;3.856;2023-03-29T16:19:52;18.10;99.90
33149;DHT22;19506;51.040;3.856;2023-03-29T16:22:19;18.20;99.90
33149;DHT22;19506;51.040;3.856;2023-03-29T16:24:46;18.30;99.90
33149;DHT22;19506;51.040;3.856;2023-03-29T16:27:33;18.40;99.90
33149;DHT22;19506;51.040;3.856;2023-03-29T16:30:04;18.60;99.90
33149;DHT22;19506;51.040;3.856;2023-03-29T16:32:30;18.70;99.90
33149;DHT22;19506;51.040;3.856;2023-03-29T16:34:56;18.50;99.90
33149;DHT22;19506;51.040;3.856;2023-03-29T16:37:41;18.60;99.90
33149;DHT22;19506;51.040;3.856;2023-03-29T16:40:07;18.60;99.90
33149;DHT22;19506;51.040;3.856;2023-03-29T16:42:42;18.70;99.90
33149;DHT22;19506;51.040;3.856;2023-03-29T16:45:19;18.70;99.90
33149;DHT22;19506;51.040;3.856;2023-03-29T16:48:16;18.30;99.90
33149;DHT22;19506;51.040;3.856;2023-03-29T16:50:51;18.40;99.90
33149;DHT22;19506;51.040;3.856;2023-03-29T16:53:17;18.40;99.90
33149;DHT22;19506;51.040;3.856;2023-03-29T16:55:45;18.30;99.90
33149;DHT22;19506;51.040;3.856;2023-03-29T16:58:16;18.30;99.90
33149;DHT22;19506;51.040;3.856;2023-03-29T17:00:43;18.30;99.90
33149;DHT22;19506;51.040;3.856;2023-03-29T17:03:10;18.10;99.90
33149;DHT22;19506;51.040;3.856;2023-03-29T17:05:36;18.10;99.90
33149;DHT22;19506;51.040;3.856;2023-03-29T17:08:06;17.70;99.90
33149;DHT22;19506;51.040;3.856;2023-03-29T17:10:34;17.60;99.90
33149;DHT22;19506;51.040;3.856;2023-03-29T17:13:00;17.50;99.90
33149;DHT22;19506;51.040;3.856;2023-03-29T17:15:25;17.50;99.90
33149;DHT22;19506;51.040;3.856;2023-03-29T17:17:51;17.60;99.90
33149;DHT22;19506;51.040;3.856;2023-03-29T17:20:17;17.50;99.90
33149;DHT22;19506;51.040;3.856;2023-03-29T17:22:42;17.60;99.90
33149;DHT22;19506;51.040;3.856;2023-03-29T17:25:09;17.60;99.90
33149;DHT22;19506;51.040;3.856;2023-03-29T17:27:35;17.60;99.90
33149;DHT22;19506;51.040;3.856;2023-03-29T17:30:03;17.60;99.90
33149;DHT22;19506;51.040;3.856;2023-03-29T17:32:29;17.60;99.90
33149;DHT22;19506;51.040;3.856;2023-03-29T17:34:55;17.60;99.90
33149;DHT22;19506;51.040;3.856;2023-03-29T17:37:21;17.60;99.90
33149;DHT22;19506;51.040;3.856;2023-03-29T17:39:47;17.60;99.90
33149;DHT22;19506;51.040;3.856;2023-03-29T17:42:12;17.70;99.90
33149;DHT22;19506;51.040;3.856;2023-03-29T17:44:40;17.80;99.90